sensor_id;sensor_type;location;lat;lon;timestamp;P1;durP1;ratioP1;P2;durP2;ratioP2
27921;SDS011;15261;50.356;10.340;2023-01-26T00:01:45;23.47;;;17.17;;
27921;SDS011;15261;50.356;10.340;2023-01-26T00:04:11;25.23;;;17.60;;
27921;SDS011;15261;50.356;10.340;2023-01-26T00:06:36;25.47;;;17.17;;
27921;SDS011;15261;50.356;10.340;2023-01-26T00:09:02;26.47;;;18.17;;
27921;SDS011;15261;50.356;10.340;2023-01-26T00:11:28;27.20;;;18.97;;
27921;SDS011;15261;50.356;10.340;2023-01-26T00:13:54;30.20;;;20.30;;
27921;SDS011;15261;50.356;10.340;2023-01-26T00:16:21;28.53;;;21.30;;
27921;SDS011;15261;50.356;10.340;2023-01-26T00:18:47;28.40;;;19.40;;
27921;SDS011;15261;50.356;10.340;2023-01-26T00:21:14;30.97;;;20.53;;
27921;SDS011;15261;50.356;10.340;2023-01-26T00:23:41;29.63;;;20.57;;
27921;SDS011;15261;50.356;10.340;2023-01-26T00:26:08;28.83;;;20.67;;
27921;SDS011;15261;50.356;10.340;2023-01-26T00:28:35;26.23;;;18.03;;
27921;SDS011;15261;50.356;10.340;2023-01-26T00:31:04;26.93;;;17.77;;
27921;SDS011;15261;50.356;10.340;2023-01-26T00:33:31;28.23;;;19.63;;
27921;SDS011;15261;50.356;10.340;2023-01-26T00:35:57;27.37;;;19.37;;
27921;SDS011;15261;50.356;10.340;2023-01-26T00:38:23;29.10;;;18.37;;
27921;SDS011;15261;50.356;10.340;2023-01-26T00:40:48;28.33;;;19.17;;
27921;SDS011;15261;50.356;10.340;2023-01-26T00:43:14;27.30;;;18.90;;
27921;SDS011;15261;50.356;10.340;2023-01-26T00:45:40;28.60;;;19.20;;
27921;SDS011;15261;50.356;10.340;2023-01-26T00:48:05;27.87;;;19.67;;
27921;SDS011;15261;50.356;10.340;2023-01-26T00:50:31;30.83;;;19.77;;
27921;SDS011;15261;50.356;10.340;2023-01-26T00:52:57;30.23;;;20.33;;
27921;SDS011;15261;50.356;10.340;2023-01-26T00:55:24;26.50;;;19.33;;
27921;SDS011;15261;50.356;10.340;2023-01-26T00:57:56;27.67;;;19.13;;
27921;SDS011;15261;50.356;10.340;2023-01-26T01:00:22;27.87;;;18.77;;
27921;SDS011;15261;50.356;10.340;2023-01-26T01:02:48;25.73;;;18.43;;
27921;SDS011;15261;50.356;10.340;2023-01-26T01:05:13;27.63;;;19.40;;
27921;SDS011;15261;50.356;10.340;2023-01-26T01:07:39;28.13;;;19.13;;
27921;SDS011;15261;50.356;10.340;2023-01-26T01:10:05;28.83;;;18.77;;
27921;SDS011;15261;50.356;10.340;2023-01-26T01:12:32;27.80;;;19.60;;
27921;SDS011;15261;50.356;10.340;2023-01-26T01:14:58;29.73;;;19.37;;
27921;SDS011;15261;50.356;10.340;2023-01-26T01:17:23;31.03;;;20.07;;
27921;SDS011;15261;50.356;10.340;2023-01-26T01:19:49;33.97;;;21.20;;
27921;SDS011;15261;50.356;10.340;2023-01-26T01:22:15;30.23;;;20.17;;
27921;SDS011;15261;50.356;10.340;2023-01-26T01:24:40;31.37;;;19.60;;
27921;SDS011;15261;50.356;10.340;2023-01-26T01:27:06;30.10;;;19.67;;
27921;SDS011;15261;50.356;10.340;2023-01-26T01:29:31;33.07;;;21.17;;
27921;SDS011;15261;50.356;10.340;2023-01-26T01:31:57;32.53;;;21.33;;
27921;SDS011;15261;50.356;10.340;2023-01-26T01:34:23;29.83;;;20.40;;
27921;SDS011;15261;50.356;10.340;2023-01-26T01:36:48;31.17;;;21.10;;
27921;SDS011;15261;50.356;10.340;2023-01-26T01:39:14;29.53;;;19.23;;
27921;SDS011;15261;50.356;10.340;2023-01-26T01:41:39;26.87;;;18.27;;
27921;SDS011;15261;50.356;10.340;2023-01-26T01:46:38;27.10;;;18.50;;
27921;SDS011;15261;50.356;10.340;2023-01-26T01:51:41;28.03;;;19.67;;
27921;SDS011;15261;50.356;10.340;2023-01-26T01:54:12;28.20;;;18.70;;
27921;SDS011;15261;50.356;10.340;2023-01-26T01:56:41;30.53;;;19.80;;
27921;SDS011;15261;50.356;10.340;2023-01-26T01:59:26;31.43;;;19.60;;
27921;SDS011;15261;50.356;10.340;2023-01-26T02:01:53;27.77;;;18.37;;
27921;SDS011;15261;50.356;10.340;2023-01-26T02:04:20;32.20;;;20.80;;
27921;SDS011;15261;50.356;10.340;2023-01-26T02:06:48;34.87;;;21.67;;
27921;SDS011;15261;50.356;10.340;2023-01-26T02:09:17;30.60;;;20.37;;
27921;SDS011;15261;50.356;10.340;2023-01-26T02:12:08;31.17;;;19.60;;
27921;SDS011;15261;50.356;10.340;2023-01-26T02:14:36;33.40;;;20.20;;
27921;SDS011;15261;50.356;10.340;2023-01-26T02:17:03;31.83;;;19.57;;
27921;SDS011;15261;50.356;10.340;2023-01-26T02:19:31;30.67;;;19.00;;
27921;SDS011;15261;50.356;10.340;2023-01-26T02:22:01;29.43;;;18.97;;
27921;SDS011;15261;50.356;10.340;2023-01-26T02:24:35;28.50;;;19.07;;
27921;SDS011;15261;50.356;10.340;2023-01-26T02:27:03;30.37;;;19.37;;
27921;SDS011;15261;50.356;10.340;2023-01-26T02:29:29;29.33;;;18.73;;
27921;SDS011;15261;50.356;10.340;2023-01-26T02:31:55;33.33;;;19.70;;
27921;SDS011;15261;50.356;10.340;2023-01-26T02:34:21;29.70;;;18.70;;
27921;SDS011;15261;50.356;10.340;2023-01-26T02:36:56;26.43;;;17.20;;
27921;SDS011;15261;50.356;10.340;2023-01-26T02:39:25;26.10;;;17.50;;
27921;SDS011;15261;50.356;10.340;2023-01-26T02:42:03;21.83;;;15.03;;
27921;SDS011;15261;50.356;10.340;2023-01-26T02:44:46;23.80;;;16.17;;
27921;SDS011;15261;50.356;10.340;2023-01-26T02:47:16;21.20;;;14.83;;
27921;SDS011;15261;50.356;10.340;2023-01-26T02:49:42;25.03;;;16.73;;
27921;SDS011;15261;50.356;10.340;2023-01-26T02:52:11;22.00;;;16.23;;
27921;SDS011;15261;50.356;10.340;2023-01-26T02:54:37;22.53;;;16.20;;
27921;SDS011;15261;50.356;10.340;2023-01-26T02:57:21;22.60;;;14.60;;
27921;SDS011;15261;50.356;10.340;2023-01-26T02:59:46;21.00;;;14.77;;
27921;SDS011;15261;50.356;10.340;2023-01-26T03:02:12;21.57;;;15.33;;
27921;SDS011;15261;50.356;10.340;2023-01-26T03:04:37;23.80;;;14.87;;
27921;SDS011;15261;50.356;10.340;2023-01-26T03:07:03;21.33;;;14.83;;
27921;SDS011;15261;50.356;10.340;2023-01-26T03:09:29;20.97;;;14.20;;
27921;SDS011;15261;50.356;10.340;2023-01-26T03:11:54;20.60;;;14.40;;
27921;SDS011;15261;50.356;10.340;2023-01-26T03:14:20;21.67;;;15.17;;
27921;SDS011;15261;50.356;10.340;2023-01-26T03:16:45;23.23;;;14.73;;
27921;SDS011;15261;50.356;10.340;2023-01-26T03:19:11;23.63;;;14.63;;
27921;SDS011;15261;50.356;10.340;2023-01-26T03:21:57;21.23;;;13.80;;
27921;SDS011;15261;50.356;10.340;2023-01-26T03:24:41;17.27;;;12.60;;
27921;SDS011;15261;50.356;10.340;2023-01-26T03:27:26;21.00;;;12.83;;
27921;SDS011;15261;50.356;10.340;2023-01-26T03:29:56;22.13;;;13.80;;
27921;SDS011;15261;50.356;10.340;2023-01-26T03:32:22;19.67;;;13.33;;
27921;SDS011;15261;50.356;10.340;2023-01-26T03:34:48;16.57;;;11.93;;
27921;SDS011;15261;50.356;10.340;2023-01-26T03:37:14;17.10;;;11.93;;
27921;SDS011;15261;50.356;10.340;2023-01-26T03:39:39;16.30;;;11.77;;
27921;SDS011;15261;50.356;10.340;2023-01-26T03:42:23;16.77;;;11.50;;
27921;SDS011;15261;50.356;10.340;2023-01-26T03:45:07;15.20;;;11.50;;
27921;SDS011;15261;50.356;10.340;2023-01-26T03:47:51;17.73;;;11.33;;
27921;SDS011;15261;50.356;10.340;2023-01-26T03:50:35;14.50;;;10.77;;
27921;SDS011;15261;50.356;10.340;2023-01-26T03:53:20;16.23;;;10.70;;
27921;SDS011;15261;50.356;10.340;2023-01-26T03:56:05;15.63;;;10.97;;
27921;SDS011;15261;50.356;10.340;2023-01-26T03:58:48;15.50;;;10.90;;
27921;SDS011;15261;50.356;10.340;2023-01-26T04:01:22;13.70;;;10.00;;
27921;SDS011;15261;50.356;10.340;2023-01-26T04:03:53;13.23;;;9.03;;
27921;SDS011;15261;50.356;10.340;2023-01-26T04:06:39;13.63;;;10.13;;
27921;SDS011;15261;50.356;10.340;2023-01-26T04:09:27;12.13;;;9.43;;
27921;SDS011;15261;50.356;10.340;2023-01-26T04:11:53;13.87;;;10.67;;
27921;SDS011;15261;50.356;10.340;2023-01-26T04:17:31;14.93;;;10.20;;
27921;SDS011;15261;50.356;10.340;2023-01-26T04:20:15;14.20;;;10.30;;
27921;SDS011;15261;50.356;10.340;2023-01-26T04:22:59;11.83;;;8.63;;
27921;SDS011;15261;50.356;10.340;2023-01-26T04:25:24;12.63;;;9.10;;
27921;SDS011;15261;50.356;10.340;2023-01-26T04:27:50;10.37;;;7.80;;
27921;SDS011;15261;50.356;10.340;2023-01-26T04:30:15;10.00;;;8.27;;
27921;SDS011;15261;50.356;10.340;2023-01-26T04:32:42;10.97;;;8.17;;
27921;SDS011;15261;50.356;10.340;2023-01-26T04:35:09;9.90;;;7.50;;
27921;SDS011;15261;50.356;10.340;2023-01-26T04:37:35;10.70;;;8.17;;
27921;SDS011;15261;50.356;10.340;2023-01-26T04:40:01;10.03;;;7.57;;
27921;SDS011;15261;50.356;10.340;2023-01-26T04:42:28;9.00;;;7.73;;
27921;SDS011;15261;50.356;10.340;2023-01-26T04:44:53;10.47;;;7.77;;
27921;SDS011;15261;50.356;10.340;2023-01-26T04:47:20;10.10;;;7.97;;
27921;SDS011;15261;50.356;10.340;2023-01-26T04:49:45;9.80;;;7.40;;
27921;SDS011;15261;50.356;10.340;2023-01-26T04:52:11;9.13;;;7.53;;
27921;SDS011;15261;50.356;10.340;2023-01-26T04:54:37;10.77;;;7.70;;
27921;SDS011;15261;50.356;10.340;2023-01-26T04:57:04;12.43;;;7.80;;
27921;SDS011;15261;50.356;10.340;2023-01-26T04:59:29;9.93;;;7.83;;
27921;SDS011;15261;50.356;10.340;2023-01-26T05:01:55;11.67;;;9.53;;
27921;SDS011;15261;50.356;10.340;2023-01-26T05:04:21;12.70;;;10.90;;
27921;SDS011;15261;50.356;10.340;2023-01-26T05:06:46;11.37;;;7.80;;
27921;SDS011;15261;50.356;10.340;2023-01-26T05:09:12;10.27;;;7.97;;
27921;SDS011;15261;50.356;10.340;2023-01-26T05:11:37;8.63;;;6.93;;
27921;SDS011;15261;50.356;10.340;2023-01-26T05:14:03;10.17;;;7.20;;
27921;SDS011;15261;50.356;10.340;2023-01-26T05:19:30;11.60;;;7.97;;
27921;SDS011;15261;50.356;10.340;2023-01-26T05:21:56;10.80;;;7.77;;
27921;SDS011;15261;50.356;10.340;2023-01-26T05:24:21;10.57;;;7.63;;
27921;SDS011;15261;50.356;10.340;2023-01-26T05:26:47;10.93;;;8.13;;
27921;SDS011;15261;50.356;10.340;2023-01-26T05:29:32;9.93;;;8.07;;
27921;SDS011;15261;50.356;10.340;2023-01-26T05:31:58;10.93;;;8.17;;
27921;SDS011;15261;50.356;10.340;2023-01-26T05:34:23;8.97;;;7.43;;
27921;SDS011;15261;50.356;10.340;2023-01-26T05:36:49;10.37;;;7.70;;
27921;SDS011;15261;50.356;10.340;2023-01-26T05:39:14;10.30;;;7.53;;
27921;SDS011;15261;50.356;10.340;2023-01-26T05:41:40;7.57;;;6.10;;
27921;SDS011;15261;50.356;10.340;2023-01-26T05:44:06;8.43;;;6.83;;
27921;SDS011;15261;50.356;10.340;2023-01-26T05:46:32;9.40;;;6.87;;
27921;SDS011;15261;50.356;10.340;2023-01-26T05:48:57;10.57;;;7.60;;
27921;SDS011;15261;50.356;10.340;2023-01-26T05:51:23;9.77;;;7.53;;
27921;SDS011;15261;50.356;10.340;2023-01-26T05:53:48;8.90;;;7.30;;
27921;SDS011;15261;50.356;10.340;2023-01-26T05:56:14;10.63;;;7.70;;
27921;SDS011;15261;50.356;10.340;2023-01-26T05:58:39;8.80;;;7.10;;
27921;SDS011;15261;50.356;10.340;2023-01-26T06:01:05;10.37;;;7.00;;
27921;SDS011;15261;50.356;10.340;2023-01-26T06:03:31;10.87;;;7.30;;
27921;SDS011;15261;50.356;10.340;2023-01-26T06:05:56;9.27;;;6.77;;
27921;SDS011;15261;50.356;10.340;2023-01-26T06:08:22;9.53;;;7.43;;
27921;SDS011;15261;50.356;10.340;2023-01-26T06:10:47;9.37;;;7.20;;
27921;SDS011;15261;50.356;10.340;2023-01-26T06:13:13;10.80;;;7.30;;
27921;SDS011;15261;50.356;10.340;2023-01-26T06:15:38;8.87;;;7.30;;
27921;SDS011;15261;50.356;10.340;2023-01-26T06:18:04;11.43;;;7.63;;
27921;SDS011;15261;50.356;10.340;2023-01-26T06:20:29;8.77;;;7.30;;
27921;SDS011;15261;50.356;10.340;2023-01-26T06:22:58;8.87;;;6.37;;
27921;SDS011;15261;50.356;10.340;2023-01-26T06:25:25;10.97;;;7.83;;
27921;SDS011;15261;50.356;10.340;2023-01-26T06:30:51;11.20;;;7.77;;
27921;SDS011;15261;50.356;10.340;2023-01-26T06:33:17;8.10;;;7.00;;
27921;SDS011;15261;50.356;10.340;2023-01-26T06:35:43;11.37;;;8.13;;
27921;SDS011;15261;50.356;10.340;2023-01-26T06:38:08;9.77;;;7.43;;
27921;SDS011;15261;50.356;10.340;2023-01-26T06:40:34;12.97;;;10.70;;
27921;SDS011;15261;50.356;10.340;2023-01-26T06:42:59;9.43;;;8.10;;
27921;SDS011;15261;50.356;10.340;2023-01-26T06:45:25;11.93;;;9.83;;
27921;SDS011;15261;50.356;10.340;2023-01-26T06:47:50;10.97;;;8.23;;
27921;SDS011;15261;50.356;10.340;2023-01-26T06:50:18;10.70;;;8.40;;
27921;SDS011;15261;50.356;10.340;2023-01-26T06:52:46;13.53;;;8.90;;
27921;SDS011;15261;50.356;10.340;2023-01-26T06:55:16;10.47;;;8.57;;
27921;SDS011;15261;50.356;10.340;2023-01-26T06:57:45;11.93;;;9.03;;
27921;SDS011;15261;50.356;10.340;2023-01-26T07:00:11;11.83;;;8.67;;
27921;SDS011;15261;50.356;10.340;2023-01-26T07:02:38;10.77;;;8.03;;
27921;SDS011;15261;50.356;10.340;2023-01-26T07:05:04;9.63;;;7.77;;
27921;SDS011;15261;50.356;10.340;2023-01-26T07:07:29;12.53;;;9.13;;
27921;SDS011;15261;50.356;10.340;2023-01-26T07:09:55;10.40;;;7.97;;
27921;SDS011;15261;50.356;10.340;2023-01-26T07:12:20;9.70;;;7.97;;
27921;SDS011;15261;50.356;10.340;2023-01-26T07:14:46;9.03;;;7.70;;
27921;SDS011;15261;50.356;10.340;2023-01-26T07:17:12;9.37;;;7.00;;
27921;SDS011;15261;50.356;10.340;2023-01-26T07:19:37;10.00;;;8.17;;
27921;SDS011;15261;50.356;10.340;2023-01-26T07:22:03;9.97;;;7.80;;
27921;SDS011;15261;50.356;10.340;2023-01-26T07:24:29;9.33;;;7.00;;
27921;SDS011;15261;50.356;10.340;2023-01-26T07:26:54;8.97;;;7.00;;
27921;SDS011;15261;50.356;10.340;2023-01-26T07:29:20;10.17;;;8.03;;
27921;SDS011;15261;50.356;10.340;2023-01-26T07:31:46;10.27;;;7.80;;
27921;SDS011;15261;50.356;10.340;2023-01-26T07:34:12;10.63;;;7.93;;
27921;SDS011;15261;50.356;10.340;2023-01-26T07:36:37;10.60;;;8.50;;
27921;SDS011;15261;50.356;10.340;2023-01-26T07:39:03;10.73;;;7.93;;
27921;SDS011;15261;50.356;10.340;2023-01-26T07:41:30;10.83;;;8.57;;
27921;SDS011;15261;50.356;10.340;2023-01-26T07:43:56;11.30;;;8.37;;
27921;SDS011;15261;50.356;10.340;2023-01-26T07:46:21;9.83;;;7.87;;
27921;SDS011;15261;50.356;10.340;2023-01-26T07:48:48;9.23;;;7.73;;
27921;SDS011;15261;50.356;10.340;2023-01-26T07:51:14;10.77;;;7.77;;
27921;SDS011;15261;50.356;10.340;2023-01-26T07:53:40;8.80;;;7.33;;
27921;SDS011;15261;50.356;10.340;2023-01-26T07:56:11;9.37;;;7.43;;
27921;SDS011;15261;50.356;10.340;2023-01-26T07:58:38;9.40;;;8.07;;
27921;SDS011;15261;50.356;10.340;2023-01-26T08:01:08;9.77;;;7.50;;
27921;SDS011;15261;50.356;10.340;2023-01-26T08:03:38;10.57;;;8.07;;
27921;SDS011;15261;50.356;10.340;2023-01-26T08:06:05;10.07;;;7.87;;
27921;SDS011;15261;50.356;10.340;2023-01-26T08:08:31;10.17;;;8.10;;
27921;SDS011;15261;50.356;10.340;2023-01-26T08:10:58;9.77;;;7.70;;
27921;SDS011;15261;50.356;10.340;2023-01-26T08:13:25;10.07;;;8.40;;
27921;SDS011;15261;50.356;10.340;2023-01-26T08:15:51;9.50;;;7.97;;
27921;SDS011;15261;50.356;10.340;2023-01-26T08:18:17;12.53;;;9.43;;
27921;SDS011;15261;50.356;10.340;2023-01-26T08:20:53;10.80;;;7.77;;
27921;SDS011;15261;50.356;10.340;2023-01-26T08:23:19;10.07;;;8.43;;
27921;SDS011;15261;50.356;10.340;2023-01-26T08:25:45;12.30;;;8.97;;
27921;SDS011;15261;50.356;10.340;2023-01-26T08:28:11;10.83;;;8.30;;
27921;SDS011;15261;50.356;10.340;2023-01-26T08:30:36;10.37;;;8.10;;
27921;SDS011;15261;50.356;10.340;2023-01-26T08:33:03;9.10;;;7.47;;
27921;SDS011;15261;50.356;10.340;2023-01-26T08:35:32;11.20;;;8.47;;
27921;SDS011;15261;50.356;10.340;2023-01-26T08:37:58;11.13;;;8.47;;
27921;SDS011;15261;50.356;10.340;2023-01-26T08:40:24;13.63;;;8.77;;
27921;SDS011;15261;50.356;10.340;2023-01-26T08:42:50;11.90;;;8.47;;
27921;SDS011;15261;50.356;10.340;2023-01-26T08:45:16;15.00;;;10.27;;
27921;SDS011;15261;50.356;10.340;2023-01-26T08:47:42;12.33;;;9.50;;
27921;SDS011;15261;50.356;10.340;2023-01-26T08:50:09;15.00;;;10.80;;
27921;SDS011;15261;50.356;10.340;2023-01-26T08:52:35;12.40;;;9.27;;
27921;SDS011;15261;50.356;10.340;2023-01-26T08:55:01;12.07;;;9.40;;
27921;SDS011;15261;50.356;10.340;2023-01-26T08:57:28;13.50;;;9.80;;
27921;SDS011;15261;50.356;10.340;2023-01-26T08:59:54;13.87;;;10.73;;
27921;SDS011;15261;50.356;10.340;2023-01-26T09:02:19;12.07;;;9.53;;
27921;SDS011;15261;50.356;10.340;2023-01-26T09:04:45;10.77;;;8.80;;
27921;SDS011;15261;50.356;10.340;2023-01-26T09:07:10;11.80;;;8.20;;
27921;SDS011;15261;50.356;10.340;2023-01-26T09:09:36;9.33;;;7.63;;
27921;SDS011;15261;50.356;10.340;2023-01-26T09:12:01;11.67;;;8.43;;
27921;SDS011;15261;50.356;10.340;2023-01-26T09:14:28;10.03;;;7.57;;
27921;SDS011;15261;50.356;10.340;2023-01-26T09:16:54;11.47;;;7.97;;
27921;SDS011;15261;50.356;10.340;2023-01-26T09:19:19;9.83;;;8.07;;
27921;SDS011;15261;50.356;10.340;2023-01-26T09:21:45;10.90;;;8.00;;
27921;SDS011;15261;50.356;10.340;2023-01-26T09:24:11;11.60;;;7.73;;
27921;SDS011;15261;50.356;10.340;2023-01-26T09:26:36;10.00;;;7.30;;
27921;SDS011;15261;50.356;10.340;2023-01-26T09:29:02;12.50;;;9.60;;
27921;SDS011;15261;50.356;10.340;2023-01-26T09:31:27;9.57;;;7.43;;
27921;SDS011;15261;50.356;10.340;2023-01-26T09:33:53;11.33;;;8.30;;
27921;SDS011;15261;50.356;10.340;2023-01-26T09:36:19;12.00;;;8.67;;
27921;SDS011;15261;50.356;10.340;2023-01-26T09:38:45;10.40;;;8.27;;
27921;SDS011;15261;50.356;10.340;2023-01-26T09:44:10;10.97;;;7.30;;
27921;SDS011;15261;50.356;10.340;2023-01-26T09:49:41;8.53;;;6.90;;
27921;SDS011;15261;50.356;10.340;2023-01-26T09:52:19;8.20;;;6.70;;
27921;SDS011;15261;50.356;10.340;2023-01-26T09:54:52;8.67;;;7.20;;
27921;SDS011;15261;50.356;10.340;2023-01-26T09:57:28;8.63;;;7.17;;
27921;SDS011;15261;50.356;10.340;2023-01-26T10:00:02;7.97;;;6.43;;
27921;SDS011;15261;50.356;10.340;2023-01-26T10:05:39;8.63;;;6.57;;
27921;SDS011;15261;50.356;10.340;2023-01-26T10:08:17;10.50;;;8.27;;
27921;SDS011;15261;50.356;10.340;2023-01-26T10:10:47;11.40;;;8.57;;
27921;SDS011;15261;50.356;10.340;2023-01-26T10:13:21;9.13;;;7.30;;
27921;SDS011;15261;50.356;10.340;2023-01-26T10:15:52;7.30;;;5.83;;
27921;SDS011;15261;50.356;10.340;2023-01-26T10:18:26;6.93;;;5.97;;
27921;SDS011;15261;50.356;10.340;2023-01-26T10:20:56;5.87;;;4.87;;
27921;SDS011;15261;50.356;10.340;2023-01-26T10:23:28;6.17;;;5.53;;
27921;SDS011;15261;50.356;10.340;2023-01-26T10:25:57;6.30;;;5.57;;
27921;SDS011;15261;50.356;10.340;2023-01-26T10:28:40;6.83;;;5.67;;
27921;SDS011;15261;50.356;10.340;2023-01-26T10:31:18;6.87;;;5.80;;
27921;SDS011;15261;50.356;10.340;2023-01-26T10:36:23;5.97;;;4.93;;
27921;SDS011;15261;50.356;10.340;2023-01-26T10:38:50;6.47;;;5.00;;
27921;SDS011;15261;50.356;10.340;2023-01-26T10:41:23;6.60;;;5.37;;
27921;SDS011;15261;50.356;10.340;2023-01-26T10:43:57;5.00;;;4.50;;
27921;SDS011;15261;50.356;10.340;2023-01-26T10:46:30;5.90;;;5.23;;
27921;SDS011;15261;50.356;10.340;2023-01-26T10:49:03;5.87;;;4.60;;
27921;SDS011;15261;50.356;10.340;2023-01-26T10:51:40;5.33;;;4.83;;
27921;SDS011;15261;50.356;10.340;2023-01-26T10:54:27;4.93;;;4.40;;
27921;SDS011;15261;50.356;10.340;2023-01-26T10:56:56;5.30;;;4.80;;
27921;SDS011;15261;50.356;10.340;2023-01-26T10:59:57;5.33;;;4.83;;
27921;SDS011;15261;50.356;10.340;2023-01-26T11:02:26;6.40;;;5.03;;
27921;SDS011;15261;50.356;10.340;2023-01-26T11:05:16;5.37;;;4.87;;
27921;SDS011;15261;50.356;10.340;2023-01-26T11:07:44;9.87;;;5.67;;
27921;SDS011;15261;50.356;10.340;2023-01-26T11:10:22;5.33;;;4.83;;
27921;SDS011;15261;50.356;10.340;2023-01-26T11:13:18;6.10;;;5.50;;
27921;SDS011;15261;50.356;10.340;2023-01-26T11:15:46;6.40;;;5.43;;
27921;SDS011;15261;50.356;10.340;2023-01-26T11:24:03;6.00;;;5.33;;
27921;SDS011;15261;50.356;10.340;2023-01-26T11:35:11;6.37;;;5.60;;
27921;SDS011;15261;50.356;10.340;2023-01-26T11:38:20;6.90;;;5.83;;
27921;SDS011;15261;50.356;10.340;2023-01-26T11:40:52;7.50;;;5.73;;
27921;SDS011;15261;50.356;10.340;2023-01-26T11:49:50;7.33;;;6.03;;
27921;SDS011;15261;50.356;10.340;2023-01-26T11:52:27;9.03;;;6.87;;
27921;SDS011;15261;50.356;10.340;2023-01-26T11:55:18;7.63;;;6.60;;
27921;SDS011;15261;50.356;10.340;2023-01-26T11:58:00;7.80;;;6.77;;
27921;SDS011;15261;50.356;10.340;2023-01-26T12:00:32;8.20;;;7.10;;
27921;SDS011;15261;50.356;10.340;2023-01-26T12:03:02;9.80;;;7.10;;
27921;SDS011;15261;50.356;10.340;2023-01-26T12:05:46;10.10;;;8.07;;
27921;SDS011;15261;50.356;10.340;2023-01-26T12:08:21;9.63;;;8.00;;
27921;SDS011;15261;50.356;10.340;2023-01-26T12:13:46;9.07;;;7.13;;
27921;SDS011;15261;50.356;10.340;2023-01-26T12:16:29;9.83;;;7.47;;
27921;SDS011;15261;50.356;10.340;2023-01-26T12:19:05;10.07;;;8.03;;
27921;SDS011;15261;50.356;10.340;2023-01-26T12:21:33;8.90;;;7.77;;
27921;SDS011;15261;50.356;10.340;2023-01-26T12:24:02;9.90;;;7.67;;
27921;SDS011;15261;50.356;10.340;2023-01-26T12:26:34;9.73;;;7.93;;
27921;SDS011;15261;50.356;10.340;2023-01-26T12:29:09;10.83;;;8.50;;
27921;SDS011;15261;50.356;10.340;2023-01-26T12:31:58;9.27;;;7.57;;
27921;SDS011;15261;50.356;10.340;2023-01-26T12:34:31;10.40;;;8.30;;
27921;SDS011;15261;50.356;10.340;2023-01-26T12:39:33;10.47;;;8.63;;
27921;SDS011;15261;50.356;10.340;2023-01-26T12:44:57;11.40;;;8.80;;
27921;SDS011;15261;50.356;10.340;2023-01-26T12:50:08;11.37;;;9.27;;
27921;SDS011;15261;50.356;10.340;2023-01-26T12:55:19;10.83;;;8.97;;
27921;SDS011;15261;50.356;10.340;2023-01-26T12:57:52;10.73;;;9.17;;
27921;SDS011;15261;50.356;10.340;2023-01-26T13:00:23;11.37;;;9.03;;
27921;SDS011;15261;50.356;10.340;2023-01-26T13:03:02;12.13;;;9.60;;
27921;SDS011;15261;50.356;10.340;2023-01-26T13:05:38;14.20;;;10.07;;
27921;SDS011;15261;50.356;10.340;2023-01-26T13:10:57;10.63;;;8.57;;
27921;SDS011;15261;50.356;10.340;2023-01-26T13:13:25;8.83;;;7.93;;
27921;SDS011;15261;50.356;10.340;2023-01-26T13:21:42;7.77;;;6.60;;
27921;SDS011;15261;50.356;10.340;2023-01-26T13:26:51;7.37;;;6.67;;
27921;SDS011;15261;50.356;10.340;2023-01-26T13:31:53;8.07;;;7.17;;
27921;SDS011;15261;50.356;10.340;2023-01-26T13:34:34;8.27;;;7.47;;
27921;SDS011;15261;50.356;10.340;2023-01-26T13:37:10;8.17;;;7.37;;
27921;SDS011;15261;50.356;10.340;2023-01-26T13:39:43;8.23;;;7.27;;
27921;SDS011;15261;50.356;10.340;2023-01-26T13:42:22;8.40;;;6.97;;
27921;SDS011;15261;50.356;10.340;2023-01-26T13:44:53;8.67;;;7.37;;
27921;SDS011;15261;50.356;10.340;2023-01-26T13:47:31;9.00;;;7.93;;
27921;SDS011;15261;50.356;10.340;2023-01-26T13:50:20;10.07;;;8.27;;
27921;SDS011;15261;50.356;10.340;2023-01-26T13:53:02;8.23;;;7.37;;
27921;SDS011;15261;50.356;10.340;2023-01-26T13:55:54;7.83;;;7.03;;
27921;SDS011;15261;50.356;10.340;2023-01-26T13:58:22;8.60;;;7.70;;
27921;SDS011;15261;50.356;10.340;2023-01-26T14:00:58;8.57;;;7.67;;
27921;SDS011;15261;50.356;10.340;2023-01-26T14:03:28;7.63;;;6.93;;
27921;SDS011;15261;50.356;10.340;2023-01-26T14:06:01;9.23;;;8.13;;
27921;SDS011;15261;50.356;10.340;2023-01-26T14:08:37;9.30;;;8.30;;
27921;SDS011;15261;50.356;10.340;2023-01-26T14:11:04;8.97;;;7.77;;
27921;SDS011;15261;50.356;10.340;2023-01-26T14:13:44;11.83;;;9.17;;
27921;SDS011;15261;50.356;10.340;2023-01-26T14:16:27;9.47;;;8.47;;
27921;SDS011;15261;50.356;10.340;2023-01-26T14:19:12;11.77;;;9.30;;
27921;SDS011;15261;50.356;10.340;2023-01-26T14:21:52;11.87;;;10.43;;
27921;SDS011;15261;50.356;10.340;2023-01-26T14:26:53;10.20;;;8.07;;
27921;SDS011;15261;50.356;10.340;2023-01-26T14:29:20;10.80;;;9.20;;
27921;SDS011;15261;50.356;10.340;2023-01-26T14:31:48;10.13;;;9.00;;
27921;SDS011;15261;50.356;10.340;2023-01-26T14:34:21;11.03;;;9.70;;
27921;SDS011;15261;50.356;10.340;2023-01-26T14:39:31;14.60;;;13.07;;
27921;SDS011;15261;50.356;10.340;2023-01-26T14:41:57;15.77;;;13.87;;
27921;SDS011;15261;50.356;10.340;2023-01-26T14:44:24;16.23;;;13.70;;
27921;SDS011;15261;50.356;10.340;2023-01-26T14:46:55;15.87;;;12.03;;
27921;SDS011;15261;50.356;10.340;2023-01-26T14:49:40;17.00;;;14.40;;
27921;SDS011;15261;50.356;10.340;2023-01-26T14:52:26;16.93;;;13.70;;
27921;SDS011;15261;50.356;10.340;2023-01-26T14:55:06;15.60;;;12.83;;
27921;SDS011;15261;50.356;10.340;2023-01-26T14:57:42;14.57;;;12.00;;
27921;SDS011;15261;50.356;10.340;2023-01-26T15:00:17;16.97;;;12.30;;
27921;SDS011;15261;50.356;10.340;2023-01-26T15:06:31;18.97;;;12.40;;
27921;SDS011;15261;50.356;10.340;2023-01-26T15:09:04;16.23;;;12.27;;
27921;SDS011;15261;50.356;10.340;2023-01-26T15:11:50;16.10;;;12.33;;
27921;SDS011;15261;50.356;10.340;2023-01-26T15:17:26;18.03;;;12.67;;
27921;SDS011;15261;50.356;10.340;2023-01-26T15:19:52;15.00;;;12.27;;
27921;SDS011;15261;50.356;10.340;2023-01-26T15:22:18;18.03;;;13.87;;
27921;SDS011;15261;50.356;10.340;2023-01-26T15:24:46;17.77;;;13.37;;
27921;SDS011;15261;50.356;10.340;2023-01-26T15:27:22;16.30;;;12.43;;
27921;SDS011;15261;50.356;10.340;2023-01-26T15:29:48;19.87;;;12.93;;
27921;SDS011;15261;50.356;10.340;2023-01-26T15:32:28;15.50;;;11.53;;
27921;SDS011;15261;50.356;10.340;2023-01-26T15:35:13;14.77;;;10.90;;
27921;SDS011;15261;50.356;10.340;2023-01-26T15:37:43;13.97;;;10.77;;
27921;SDS011;15261;50.356;10.340;2023-01-26T15:40:09;15.30;;;11.93;;
27921;SDS011;15261;50.356;10.340;2023-01-26T15:42:36;17.23;;;12.17;;
27921;SDS011;15261;50.356;10.340;2023-01-26T15:45:01;14.47;;;11.97;;
27921;SDS011;15261;50.356;10.340;2023-01-26T15:47:28;15.40;;;11.30;;
27921;SDS011;15261;50.356;10.340;2023-01-26T15:49:53;12.03;;;9.83;;
27921;SDS011;15261;50.356;10.340;2023-01-26T15:52:22;12.27;;;9.80;;
27921;SDS011;15261;50.356;10.340;2023-01-26T15:54:52;15.20;;;11.97;;
27921;SDS011;15261;50.356;10.340;2023-01-26T15:57:18;13.50;;;11.10;;
27921;SDS011;15261;50.356;10.340;2023-01-26T15:59:43;18.33;;;13.03;;
27921;SDS011;15261;50.356;10.340;2023-01-26T16:02:19;13.53;;;10.77;;
27921;SDS011;15261;50.356;10.340;2023-01-26T16:04:45;13.33;;;10.37;;